sensor_id;sensor_type;location;lat;lon;timestamp;temperature;humidity
584;HTU21D;27024;54.068;12.116;2023-07-30T00:02:22;15.78;118.99
584;HTU21D;27024;54.068;12.116;2023-07-30T00:04:48;15.77;118.99
584;HTU21D;27024;54.068;12.116;2023-07-30T00:07:16;15.73;118.99
584;HTU21D;27024;54.068;12.116;2023-07-30T00:09:42;15.66;118.99
584;HTU21D;27024;54.068;12.116;2023-07-30T00:12:09;15.59;118.99
584;HTU21D;27024;54.068;12.116;2023-07-30T00:14:36;15.67;118.99
584;HTU21D;27024;54.068;12.116;2023-07-30T00:17:04;15.57;118.99
584;HTU21D;27024;54.068;12.116;2023-07-30T00:19:31;15.49;118.99
584;HTU21D;27024;54.068;12.116;2023-07-30T00:21:58;15.51;118.99
584;HTU21D;27024;54.068;12.116;2023-07-30T00:24:25;15.53;118.99
584;HTU21D;27024;54.068;12.116;2023-07-30T00:26:52;15.51;118.99
584;HTU21D;27024;54.068;12.116;2023-07-30T00:29:19;15.34;118.99
584;HTU21D;27024;54.068;12.116;2023-07-30T00:31:48;15.30;118.99
584;HTU21D;27024;54.068;12.116;2023-07-30T00:34:15;15.30;118.99
584;HTU21D;27024;54.068;12.116;2023-07-30T00:36:42;15.24;118.99
584;HTU21D;27024;54.068;12.116;2023-07-30T00:39:09;15.24;118.99
584;HTU21D;27024;54.068;12.116;2023-07-30T00:41:37;15.24;118.99
584;HTU21D;27024;54.068;12.116;2023-07-30T00:44:05;15.19;118.99
584;HTU21D;27024;54.068;12.116;2023-07-30T00:46:32;15.16;118.99
584;HTU21D;27024;54.068;12.116;2023-07-30T00:48:59;15.12;118.99
584;HTU21D;27024;54.068;12.116;2023-07-30T00:51:27;15.04;118.99
584;HTU21D;27024;54.068;12.116;2023-07-30T00:53:56;15.07;118.99
584;HTU21D;27024;54.068;12.116;2023-07-30T00:56:23;15.07;118.99
584;HTU21D;27024;54.068;12.116;2023-07-30T00:58:50;14.93;118.99
584;HTU21D;27024;54.068;12.116;2023-07-30T01:01:17;14.94;118.99
584;HTU21D;27024;54.068;12.116;2023-07-30T01:03:44;14.95;118.99
584;HTU21D;27024;54.068;12.116;2023-07-30T01:06:11;14.96;118.99
584;HTU21D;27024;54.068;12.116;2023-07-30T01:08:38;15.01;118.99
584;HTU21D;27024;54.068;12.116;2023-07-30T01:11:05;15.02;118.99
584;HTU21D;27024;54.068;12.116;2023-07-30T01:13:34;15.03;118.99
584;HTU21D;27024;54.068;12.116;2023-07-30T01:16:02;15.08;118.99
584;HTU21D;27024;54.068;12.116;2023-07-30T01:18:33;15.03;118.99
584;HTU21D;27024;54.068;12.116;2023-07-30T01:21:00;15.01;118.99
584;HTU21D;27024;54.068;12.116;2023-07-30T01:23:27;15.04;118.99
584;HTU21D;27024;54.068;12.116;2023-07-30T01:26:03;15.02;118.99
584;HTU21D;27024;54.068;12.116;2023-07-30T01:28:36;14.99;118.99
584;HTU21D;27024;54.068;12.116;2023-07-30T01:31:05;14.94;118.99
584;HTU21D;27024;54.068;12.116;2023-07-30T01:33:33;14.93;118.99
584;HTU21D;27024;54.068;12.116;2023-07-30T01:36:01;14.94;118.99
584;HTU21D;27024;54.068;12.116;2023-07-30T01:38:29;14.96;118.99
584;HTU21D;27024;54.068;12.116;2023-07-30T01:40:56;14.91;118.99
584;HTU21D;27024;54.068;12.116;2023-07-30T01:43:24;14.87;118.99
584;HTU21D;27024;54.068;12.116;2023-07-30T01:45:50;14.92;118.99
584;HTU21D;27024;54.068;12.116;2023-07-30T01:48:17;14.88;118.99
584;HTU21D;27024;54.068;12.116;2023-07-30T01:50:44;14.87;118.99
584;HTU21D;27024;54.068;12.116;2023-07-30T01:53:14;14.86;118.99
584;HTU21D;27024;54.068;12.116;2023-07-30T01:55:41;14.89;118.99
584;HTU21D;27024;54.068;12.116;2023-07-30T01:58:13;14.93;118.99
584;HTU21D;27024;54.068;12.116;2023-07-30T02:00:40;14.92;118.99
584;HTU21D;27024;54.068;12.116;2023-07-30T02:03:07;14.88;118.99
584;HTU21D;27024;54.068;12.116;2023-07-30T02:05:34;14.87;118.99
584;HTU21D;27024;54.068;12.116;2023-07-30T02:08:01;14.88;118.99
584;HTU21D;27024;54.068;12.116;2023-07-30T02:10:28;14.92;118.99
584;HTU21D;27024;54.068;12.116;2023-07-30T02:12:55;14.94;118.99
584;HTU21D;27024;54.068;12.116;2023-07-30T02:15:22;15.01;118.99
584;HTU21D;27024;54.068;12.116;2023-07-30T02:17:49;15.07;118.99
584;HTU21D;27024;54.068;12.116;2023-07-30T02:20:16;15.00;118.99
584;HTU21D;27024;54.068;12.116;2023-07-30T02:22:43;15.01;118.99
584;HTU21D;27024;54.068;12.116;2023-07-30T02:25:10;15.00;118.99
584;HTU21D;27024;54.068;12.116;2023-07-30T02:27:37;15.07;118.99
584;HTU21D;27024;54.068;12.116;2023-07-30T02:30:05;15.10;118.99
584;HTU21D;27024;54.068;12.116;2023-07-30T02:32:32;15.07;118.99
584;HTU21D;27024;54.068;12.116;2023-07-30T02:34:58;15.11;118.99
584;HTU21D;27024;54.068;12.116;2023-07-30T02:37:25;15.06;118.99
584;HTU21D;27024;54.068;12.116;2023-07-30T02:39:52;15.03;118.99
584;HTU21D;27024;54.068;12.116;2023-07-30T02:42:19;15.09;118.99
584;HTU21D;27024;54.068;12.116;2023-07-30T02:44:46;15.08;118.99
584;HTU21D;27024;54.068;12.116;2023-07-30T02:47:12;15.06;118.99
584;HTU21D;27024;54.068;12.116;2023-07-30T02:49:39;15.08;118.99
584;HTU21D;27024;54.068;12.116;2023-07-30T02:52:06;15.03;118.99
584;HTU21D;27024;54.068;12.116;2023-07-30T02:54:33;15.08;118.99
584;HTU21D;27024;54.068;12.116;2023-07-30T02:57:00;15.10;118.99
584;HTU21D;27024;54.068;12.116;2023-07-30T02:59:27;15.12;118.99
584;HTU21D;27024;54.068;12.116;2023-07-30T03:01:54;15.12;118.99
584;HTU21D;27024;54.068;12.116;2023-07-30T03:04:21;15.13;118.99
584;HTU21D;27024;54.068;12.116;2023-07-30T03:06:48;15.16;118.99
584;HTU21D;27024;54.068;12.116;2023-07-30T03:09:14;15.15;118.99
584;HTU21D;27024;54.068;12.116;2023-07-30T03:11:41;15.18;118.99
584;HTU21D;27024;54.068;12.116;2023-07-30T03:14:08;15.17;118.99
584;HTU21D;27024;54.068;12.116;2023-07-30T03:16:35;15.18;118.99
584;HTU21D;27024;54.068;12.116;2023-07-30T03:19:02;15.13;118.99
584;HTU21D;27024;54.068;12.116;2023-07-30T03:21:29;15.17;118.99
584;HTU21D;27024;54.068;12.116;2023-07-30T03:23:56;15.22;118.99
584;HTU21D;27024;54.068;12.116;2023-07-30T03:26:22;15.23;118.99
584;HTU21D;27024;54.068;12.116;2023-07-30T03:28:49;15.18;118.99
584;HTU21D;27024;54.068;12.116;2023-07-30T03:31:16;15.23;118.99
584;HTU21D;27024;54.068;12.116;2023-07-30T03:33:43;15.23;118.99
584;HTU21D;27024;54.068;12.116;2023-07-30T03:36:11;15.21;118.99
584;HTU21D;27024;54.068;12.116;2023-07-30T03:38:40;15.27;118.99
584;HTU21D;27024;54.068;12.116;2023-07-30T03:41:07;15.29;118.99
584;HTU21D;27024;54.068;12.116;2023-07-30T03:43:34;15.31;118.99
584;HTU21D;27024;54.068;12.116;2023-07-30T03:46:01;15.36;118.99
584;HTU21D;27024;54.068;12.116;2023-07-30T03:48:28;15.34;118.99
584;HTU21D;27024;54.068;12.116;2023-07-30T03:50:55;15.42;118.99
584;HTU21D;27024;54.068;12.116;2023-07-30T03:53:22;15.39;118.99
584;HTU21D;27024;54.068;12.116;2023-07-30T03:55:49;15.38;118.99
584;HTU21D;27024;54.068;12.116;2023-07-30T03:58:16;15.37;118.99
584;HTU21D;27024;54.068;12.116;2023-07-30T04:00:43;15.40;118.99
584;HTU21D;27024;54.068;12.116;2023-07-30T04:03:10;15.44;118.99
584;HTU21D;27024;54.068;12.116;2023-07-30T04:05:37;15.40;118.99
584;HTU21D;27024;54.068;12.116;2023-07-30T04:08:03;15.40;118.99
584;HTU21D;27024;54.068;12.116;2023-07-30T04:10:30;15.38;118.99
584;HTU21D;27024;54.068;12.116;2023-07-30T04:12:57;15.37;118.99
584;HTU21D;27024;54.068;12.116;2023-07-30T04:15:24;15.40;118.99
584;HTU21D;27024;54.068;12.116;2023-07-30T04:17:51;15.40;118.99
584;HTU21D;27024;54.068;12.116;2023-07-30T04:20:18;15.36;118.99
584;HTU21D;27024;54.068;12.116;2023-07-30T04:22:44;15.43;118.99
584;HTU21D;27024;54.068;12.116;2023-07-30T04:25:11;15.44;118.99
584;HTU21D;27024;54.068;12.116;2023-07-30T04:27:38;15.51;118.99
584;HTU21D;27024;54.068;12.116;2023-07-30T04:30:06;15.38;118.99
584;HTU21D;27024;54.068;12.116;2023-07-30T04:32:33;15.49;118.99
584;HTU21D;27024;54.068;12.116;2023-07-30T04:35:01;15.53;118.99
584;HTU21D;27024;54.068;12.116;2023-07-30T04:37:29;15.60;118.99
584;HTU21D;27024;54.068;12.116;2023-07-30T04:39:56;15.45;118.99
584;HTU21D;27024;54.068;12.116;2023-07-30T04:42:23;15.46;118.99
584;HTU21D;27024;54.068;12.116;2023-07-30T04:44:50;15.55;118.99
584;HTU21D;27024;54.068;12.116;2023-07-30T04:47:17;15.54;118.99
584;HTU21D;27024;54.068;12.116;2023-07-30T04:49:44;15.66;118.99
584;HTU21D;27024;54.068;12.116;2023-07-30T04:52:10;15.72;118.99
584;HTU21D;27024;54.068;12.116;2023-07-30T04:54:37;15.70;118.99
584;HTU21D;27024;54.068;12.116;2023-07-30T04:57:05;15.85;118.99
584;HTU21D;27024;54.068;12.116;2023-07-30T04:59:32;15.91;118.99
584;HTU21D;27024;54.068;12.116;2023-07-30T05:02:02;15.92;118.99
584;HTU21D;27024;54.068;12.116;2023-07-30T05:04:29;15.99;118.99
584;HTU21D;27024;54.068;12.116;2023-07-30T05:06:56;16.02;118.99
584;HTU21D;27024;54.068;12.116;2023-07-30T05:09:23;16.01;118.99
584;HTU21D;27024;54.068;12.116;2023-07-30T05:11:50;16.12;118.99
584;HTU21D;27024;54.068;12.116;2023-07-30T05:14:17;16.19;118.99
584;HTU21D;27024;54.068;12.116;2023-07-30T05:16:44;16.21;118.99
584;HTU21D;27024;54.068;12.116;2023-07-30T05:19:11;16.27;118.99
584;HTU21D;27024;54.068;12.116;2023-07-30T05:21:37;16.30;118.99
584;HTU21D;27024;54.068;12.116;2023-07-30T05:24:05;16.35;118.99
584;HTU21D;27024;54.068;12.116;2023-07-30T05:26:32;16.34;118.99
584;HTU21D;27024;54.068;12.116;2023-07-30T05:28:59;16.61;118.99
584;HTU21D;27024;54.068;12.116;2023-07-30T05:31:25;16.52;118.99
584;HTU21D;27024;54.068;12.116;2023-07-30T05:33:53;16.42;118.99
584;HTU21D;27024;54.068;12.116;2023-07-30T05:36:20;16.44;118.99
584;HTU21D;27024;54.068;12.116;2023-07-30T05:38:47;16.47;118.99
584;HTU21D;27024;54.068;12.116;2023-07-30T05:41:14;16.51;118.99
584;HTU21D;27024;54.068;12.116;2023-07-30T05:43:40;16.56;118.99
584;HTU21D;27024;54.068;12.116;2023-07-30T05:46:07;16.81;118.99
584;HTU21D;27024;54.068;12.116;2023-07-30T05:48:35;16.73;118.99
584;HTU21D;27024;54.068;12.116;2023-07-30T05:51:01;16.72;118.99
584;HTU21D;27024;54.068;12.116;2023-07-30T05:53:28;16.69;118.99
584;HTU21D;27024;54.068;12.116;2023-07-30T05:55:55;16.66;118.99
584;HTU21D;27024;54.068;12.116;2023-07-30T05:58:22;16.57;118.99
584;HTU21D;27024;54.068;12.116;2023-07-30T06:00:49;16.56;118.99
584;HTU21D;27024;54.068;12.116;2023-07-30T06:03:16;16.58;118.99
584;HTU21D;27024;54.068;12.116;2023-07-30T06:05:43;16.54;118.99
584;HTU21D;27024;54.068;12.116;2023-07-30T06:08:10;16.61;118.99
584;HTU21D;27024;54.068;12.116;2023-07-30T06:10:37;16.70;118.99
584;HTU21D;27024;54.068;12.116;2023-07-30T06:13:04;16.72;118.99
584;HTU21D;27024;54.068;12.116;2023-07-30T06:15:32;16.84;118.99
584;HTU21D;27024;54.068;12.116;2023-07-30T06:18:01;16.94;118.99
584;HTU21D;27024;54.068;12.116;2023-07-30T06:20:29;16.81;118.99
584;HTU21D;27024;54.068;12.116;2023-07-30T06:22:56;16.95;118.99
584;HTU21D;27024;54.068;12.116;2023-07-30T06:25:23;17.03;118.99
584;HTU21D;27024;54.068;12.116;2023-07-30T06:27:50;16.95;118.99
584;HTU21D;27024;54.068;12.116;2023-07-30T06:30:18;16.81;118.99
584;HTU21D;27024;54.068;12.116;2023-07-30T06:32:45;16.86;118.99
584;HTU21D;27024;54.068;12.116;2023-07-30T06:35:12;16.95;118.99
584;HTU21D;27024;54.068;12.116;2023-07-30T06:37:38;17.04;118.99
584;HTU21D;27024;54.068;12.116;2023-07-30T06:40:06;16.98;118.99
584;HTU21D;27024;54.068;12.116;2023-07-30T06:42:33;17.08;118.99
584;HTU21D;27024;54.068;12.116;2023-07-30T06:45:00;17.21;118.99
584;HTU21D;27024;54.068;12.116;2023-07-30T06:47:27;17.46;118.99
584;HTU21D;27024;54.068;12.116;2023-07-30T06:49:54;17.56;118.99
584;HTU21D;27024;54.068;12.116;2023-07-30T06:52:21;17.52;118.99
584;HTU21D;27024;54.068;12.116;2023-07-30T06:54:48;17.49;118.99
584;HTU21D;27024;54.068;12.116;2023-07-30T06:57:15;17.51;118.99
584;HTU21D;27024;54.068;12.116;2023-07-30T06:59:41;17.54;118.99
584;HTU21D;27024;54.068;12.116;2023-07-30T07:02:08;17.60;118.99
584;HTU21D;27024;54.068;12.116;2023-07-30T07:04:35;17.52;118.99
584;HTU21D;27024;54.068;12.116;2023-07-30T07:07:05;17.39;118.99
584;HTU21D;27024;54.068;12.116;2023-07-30T07:09:32;17.37;118.99
584;HTU21D;27024;54.068;12.116;2023-07-30T07:11:59;17.52;118.99
584;HTU21D;27024;54.068;12.116;2023-07-30T07:14:28;17.58;118.99
584;HTU21D;27024;54.068;12.116;2023-07-30T07:16:56;17.61;118.99
584;HTU21D;27024;54.068;12.116;2023-07-30T07:19:23;17.61;118.99
584;HTU21D;27024;54.068;12.116;2023-07-30T07:21:50;17.47;118.99
584;HTU21D;27024;54.068;12.116;2023-07-30T07:24:18;17.48;118.99
584;HTU21D;27024;54.068;12.116;2023-07-30T07:26:45;17.41;118.99
584;HTU21D;27024;54.068;12.116;2023-07-30T07:29:11;17.24;118.99
584;HTU21D;27024;54.068;12.116;2023-07-30T07:31:38;17.38;118.99
584;HTU21D;27024;54.068;12.116;2023-07-30T07:34:05;18.00;118.99
584;HTU21D;27024;54.068;12.116;2023-07-30T07:36:41;18.65;118.99
584;HTU21D;27024;54.068;12.116;2023-07-30T07:39:08;18.42;118.99
584;HTU21D;27024;54.068;12.116;2023-07-30T07:41:35;18.96;118.99
584;HTU21D;27024;54.068;12.116;2023-07-30T07:44:02;19.67;118.99
584;HTU21D;27024;54.068;12.116;2023-07-30T07:46:29;19.84;118.99
584;HTU21D;27024;54.068;12.116;2023-07-30T07:48:56;19.92;118.99
584;HTU21D;27024;54.068;12.116;2023-07-30T07:51:23;19.65;118.99
584;HTU21D;27024;54.068;12.116;2023-07-30T07:53:50;19.54;118.99
584;HTU21D;27024;54.068;12.116;2023-07-30T07:56:20;19.53;118.99
584;HTU21D;27024;54.068;12.116;2023-07-30T07:58:48;19.21;118.99
584;HTU21D;27024;54.068;12.116;2023-07-30T08:01:15;19.58;118.99
584;HTU21D;27024;54.068;12.116;2023-07-30T08:03:42;19.56;118.99
584;HTU21D;27024;54.068;12.116;2023-07-30T08:06:09;19.46;118.99
584;HTU21D;27024;54.068;12.116;2023-07-30T08:08:36;19.52;118.99
584;HTU21D;27024;54.068;12.116;2023-07-30T08:11:08;19.60;118.99
584;HTU21D;27024;54.068;12.116;2023-07-30T08:13:35;19.52;118.99
584;HTU21D;27024;54.068;12.116;2023-07-30T08:16:02;19.70;118.99
584;HTU21D;27024;54.068;12.116;2023-07-30T08:18:29;19.77;118.99
584;HTU21D;27024;54.068;12.116;2023-07-30T08:20:56;19.75;118.99
584;HTU21D;27024;54.068;12.116;2023-07-30T08:23:23;20.04;118.99
584;HTU21D;27024;54.068;12.116;2023-07-30T08:25:50;20.18;118.99
584;HTU21D;27024;54.068;12.116;2023-07-30T08:28:18;20.13;118.99
584;HTU21D;27024;54.068;12.116;2023-07-30T08:30:45;20.22;118.99
584;HTU21D;27024;54.068;12.116;2023-07-30T08:33:12;20.41;118.99
584;HTU21D;27024;54.068;12.116;2023-07-30T08:35:39;20.46;118.99
584;HTU21D;27024;54.068;12.116;2023-07-30T08:38:06;20.17;118.99
584;HTU21D;27024;54.068;12.116;2023-07-30T08:40:34;20.26;118.99
584;HTU21D;27024;54.068;12.116;2023-07-30T08:43:02;20.43;118.99
584;HTU21D;27024;54.068;12.116;2023-07-30T08:45:29;20.50;118.99
584;HTU21D;27024;54.068;12.116;2023-07-30T08:47:56;20.64;118.99
584;HTU21D;27024;54.068;12.116;2023-07-30T08:50:23;20.54;118.99
584;HTU21D;27024;54.068;12.116;2023-07-30T08:52:50;20.46;118.99
584;HTU21D;27024;54.068;12.116;2023-07-30T08:55:18;20.47;118.99
584;HTU21D;27024;54.068;12.116;2023-07-30T08:57:45;20.49;118.99
584;HTU21D;27024;54.068;12.116;2023-07-30T09:00:15;20.81;118.99
584;HTU21D;27024;54.068;12.116;2023-07-30T09:02:51;20.79;118.99
584;HTU21D;27024;54.068;12.116;2023-07-30T09:05:22;21.18;118.99
584;HTU21D;27024;54.068;12.116;2023-07-30T09:07:49;21.72;118.99
584;HTU21D;27024;54.068;12.116;2023-07-30T09:10:16;22.04;118.99
584;HTU21D;27024;54.068;12.116;2023-07-30T09:12:43;22.14;118.99
584;HTU21D;27024;54.068;12.116;2023-07-30T09:15:14;22.37;118.99
584;HTU21D;27024;54.068;12.116;2023-07-30T09:17:41;22.63;118.99
584;HTU21D;27024;54.068;12.116;2023-07-30T09:20:09;22.53;118.99
584;HTU21D;27024;54.068;12.116;2023-07-30T09:22:45;22.60;118.99
584;HTU21D;27024;54.068;12.116;2023-07-30T09:25:17;22.41;118.99
584;HTU21D;27024;54.068;12.116;2023-07-30T09:27:52;22.39;118.99
584;HTU21D;27024;54.068;12.116;2023-07-30T09:30:23;22.09;118.99
584;HTU21D;27024;54.068;12.116;2023-07-30T09:32:57;22.69;118.99
584;HTU21D;27024;54.068;12.116;2023-07-30T09:35:25;23.22;118.99
584;HTU21D;27024;54.068;12.116;2023-07-30T09:38:00;23.46;118.99
584;HTU21D;27024;54.068;12.116;2023-07-30T09:40:34;23.96;118.99
584;HTU21D;27024;54.068;12.116;2023-07-30T09:43:03;23.72;118.99
584;HTU21D;27024;54.068;12.116;2023-07-30T09:45:33;23.98;118.99
584;HTU21D;27024;54.068;12.116;2023-07-30T09:48:03;23.89;118.99
584;HTU21D;27024;54.068;12.116;2023-07-30T09:50:33;23.38;118.99
584;HTU21D;27024;54.068;12.116;2023-07-30T09:53:03;24.01;118.99
584;HTU21D;27024;54.068;12.116;2023-07-30T09:55:31;24.14;118.99
584;HTU21D;27024;54.068;12.116;2023-07-30T09:57:57;23.97;118.99
584;HTU21D;27024;54.068;12.116;2023-07-30T10:00:25;23.40;118.99
584;HTU21D;27024;54.068;12.116;2023-07-30T10:02:52;23.80;118.99
584;HTU21D;27024;54.068;12.116;2023-07-30T10:05:25;24.28;118.99
584;HTU21D;27024;54.068;12.116;2023-07-30T10:10:29;24.49;118.99
584;HTU21D;27024;54.068;12.116;2023-07-30T10:13:00;24.56;118.99
584;HTU21D;27024;54.068;12.116;2023-07-30T10:15:28;23.89;118.99
584;HTU21D;27024;54.068;12.116;2023-07-30T10:17:57;23.61;118.99
584;HTU21D;27024;54.068;12.116;2023-07-30T10:20:28;23.44;118.99
584;HTU21D;27024;54.068;12.116;2023-07-30T10:23:00;23.51;118.99
584;HTU21D;27024;54.068;12.116;2023-07-30T10:25:47;24.39;118.99
584;HTU21D;27024;54.068;12.116;2023-07-30T10:28:34;24.74;118.99
584;HTU21D;27024;54.068;12.116;2023-07-30T10:31:05;24.99;118.99
584;HTU21D;27024;54.068;12.116;2023-07-30T10:33:44;24.59;118.99
584;HTU21D;27024;54.068;12.116;2023-07-30T10:36:12;24.17;118.99
584;HTU21D;27024;54.068;12.116;2023-07-30T10:38:39;23.65;118.99
584;HTU21D;27024;54.068;12.116;2023-07-30T10:41:15;23.27;118.99
584;HTU21D;27024;54.068;12.116;2023-07-30T10:43:50;22.99;118.99
584;HTU21D;27024;54.068;12.116;2023-07-30T10:46:18;23.16;118.99
584;HTU21D;27024;54.068;12.116;2023-07-30T10:48:47;23.18;118.99
584;HTU21D;27024;54.068;12.116;2023-07-30T10:51:15;23.14;118.99
584;HTU21D;27024;54.068;12.116;2023-07-30T10:53:47;23.76;118.99
584;HTU21D;27024;54.068;12.116;2023-07-30T10:56:21;23.60;118.99
584;HTU21D;27024;54.068;12.116;2023-07-30T10:58:51;23.29;118.99
584;HTU21D;27024;54.068;12.116;2023-07-30T11:01:18;23.70;118.99
584;HTU21D;27024;54.068;12.116;2023-07-30T11:03:49;23.94;118.99
584;HTU21D;27024;54.068;12.116;2023-07-30T11:06:26;23.89;118.99
584;HTU21D;27024;54.068;12.116;2023-07-30T11:08:53;24.08;118.99
584;HTU21D;27024;54.068;12.116;2023-07-30T11:11:20;24.09;118.99
584;HTU21D;27024;54.068;12.116;2023-07-30T11:13:47;23.72;118.99
584;HTU21D;27024;54.068;12.116;2023-07-30T11:16:15;23.77;118.99
584;HTU21D;27024;54.068;12.116;2023-07-30T11:18:43;23.45;118.99
584;HTU21D;27024;54.068;12.116;2023-07-30T11:21:15;23.60;118.99
584;HTU21D;27024;54.068;12.116;2023-07-30T11:23:46;23.80;118.99
584;HTU21D;27024;54.068;12.116;2023-07-30T11:26:15;23.53;118.99
584;HTU21D;27024;54.068;12.116;2023-07-30T11:28:43;23.16;118.99
584;HTU21D;27024;54.068;12.116;2023-07-30T11:31:16;23.31;118.99
584;HTU21D;27024;54.068;12.116;2023-07-30T11:33:45;23.61;118.99
584;HTU21D;27024;54.068;12.116;2023-07-30T11:36:15;24.29;118.99
584;HTU21D;27024;54.068;12.116;2023-07-30T11:38:43;24.14;118.99
584;HTU21D;27024;54.068;12.116;2023-07-30T11:41:11;23.60;118.99
584;HTU21D;27024;54.068;12.116;2023-07-30T11:43:40;23.50;118.99
584;HTU21D;27024;54.068;12.116;2023-07-30T11:46:15;23.50;118.99
584;HTU21D;27024;54.068;12.116;2023-07-30T11:48:45;23.53;118.99
584;HTU21D;27024;54.068;12.116;2023-07-30T11:51:28;23.77;118.99
584;HTU21D;27024;54.068;12.116;2023-07-30T11:53:59;23.84;118.99
584;HTU21D;27024;54.068;12.116;2023-07-30T11:56:32;23.88;118.99
584;HTU21D;27024;54.068;12.116;2023-07-30T11:59:06;24.03;118.99
584;HTU21D;27024;54.068;12.116;2023-07-30T12:01:36;24.10;118.99
584;HTU21D;27024;54.068;12.116;2023-07-30T12:04:05;24.28;118.99
584;HTU21D;27024;54.068;12.116;2023-07-30T12:09:16;25.23;118.99
584;HTU21D;27024;54.068;12.116;2023-07-30T12:11:59;25.20;118.99
584;HTU21D;27024;54.068;12.116;2023-07-30T12:14:28;25.24;118.99
584;HTU21D;27024;54.068;12.116;2023-07-30T12:16:59;25.00;118.99
584;HTU21D;27024;54.068;12.116;2023-07-30T12:19:27;25.22;118.99
584;HTU21D;27024;54.068;12.116;2023-07-30T12:21:54;24.92;118.99
584;HTU21D;27024;54.068;12.116;2023-07-30T12:24:21;25.14;118.99
584;HTU21D;27024;54.068;12.116;2023-07-30T12:26:49;25.07;118.99
584;HTU21D;27024;54.068;12.116;2023-07-30T12:29:19;24.78;118.99
584;HTU21D;27024;54.068;12.116;2023-07-30T12:31:46;24.33;118.99
584;HTU21D;27024;54.068;12.116;2023-07-30T12:34:15;24.70;118.99
584;HTU21D;27024;54.068;12.116;2023-07-30T12:36:42;24.82;118.99
584;HTU21D;27024;54.068;12.116;2023-07-30T12:39:09;24.50;118.99
584;HTU21D;27024;54.068;12.116;2023-07-30T12:41:35;24.14;118.99
584;HTU21D;27024;54.068;12.116;2023-07-30T12:44:03;23.85;118.99
584;HTU21D;27024;54.068;12.116;2023-07-30T12:46:31;23.74;118.99
584;HTU21D;27024;54.068;12.116;2023-07-30T12:48:59;23.61;118.99
584;HTU21D;27024;54.068;12.116;2023-07-30T12:51:31;23.86;118.99
584;HTU21D;27024;54.068;12.116;2023-07-30T12:53:59;23.73;118.99
584;HTU21D;27024;54.068;12.116;2023-07-30T12:56:26;23.88;118.99
584;HTU21D;27024;54.068;12.116;2023-07-30T12:58:53;24.38;118.99
584;HTU21D;27024;54.068;12.116;2023-07-30T13:01:20;24.46;118.99
584;HTU21D;27024;54.068;12.116;2023-07-30T13:03:47;24.40;118.99
584;HTU21D;27024;54.068;12.116;2023-07-30T13:06:15;23.98;118.99
584;HTU21D;27024;54.068;12.116;2023-07-30T13:08:42;24.12;118.99
584;HTU21D;27024;54.068;12.116;2023-07-30T13:11:09;23.98;118.99
584;HTU21D;27024;54.068;12.116;2023-07-30T13:13:36;23.73;118.99
584;HTU21D;27024;54.068;12.116;2023-07-30T13:16:03;23.31;118.99
584;HTU21D;27024;54.068;12.116;2023-07-30T13:18:30;23.20;118.99
584;HTU21D;27024;54.068;12.116;2023-07-30T13:20:57;23.03;118.99
584;HTU21D;27024;54.068;12.116;2023-07-30T13:23:24;22.76;118.99
584;HTU21D;27024;54.068;12.116;2023-07-30T13:25:55;22.54;118.99
584;HTU21D;27024;54.068;12.116;2023-07-30T13:28:22;22.70;118.99
584;HTU21D;27024;54.068;12.116;2023-07-30T13:30:49;22.64;118.99
584;HTU21D;27024;54.068;12.116;2023-07-30T13:33:17;22.76;118.99
584;HTU21D;27024;54.068;12.116;2023-07-30T13:35:44;22.76;118.99
584;HTU21D;27024;54.068;12.116;2023-07-30T13:38:11;22.83;118.99
584;HTU21D;27024;54.068;12.116;2023-07-30T13:40:38;22.98;118.99
584;HTU21D;27024;54.068;12.116;2023-07-30T13:43:05;23.53;118.99
584;HTU21D;27024;54.068;12.116;2023-07-30T13:45:32;23.54;118.99
584;HTU21D;27024;54.068;12.116;2023-07-30T13:47:59;23.80;118.99
584;HTU21D;27024;54.068;12.116;2023-07-30T13:50:26;24.76;118.99
584;HTU21D;27024;54.068;12.116;2023-07-30T13:52:53;25.03;118.99
584;HTU21D;27024;54.068;12.116;2023-07-30T13:55:19;25.45;118.99
584;HTU21D;27024;54.068;12.116;2023-07-30T13:57:46;25.67;118.99
584;HTU21D;27024;54.068;12.116;2023-07-30T14:00:13;25.35;118.99
584;HTU21D;27024;54.068;12.116;2023-07-30T14:02:40;24.72;118.99
584;HTU21D;27024;54.068;12.116;2023-07-30T14:05:09;24.49;118.99
584;HTU21D;27024;54.068;12.116;2023-07-30T14:07:36;23.92;118.99
584;HTU21D;27024;54.068;12.116;2023-07-30T14:10:03;23.61;118.99
584;HTU21D;27024;54.068;12.116;2023-07-30T14:12:31;23.28;118.99
584;HTU21D;27024;54.068;12.116;2023-07-30T14:14:57;23.31;118.99
584;HTU21D;27024;54.068;12.116;2023-07-30T14:17:24;23.42;118.99
584;HTU21D;27024;54.068;12.116;2023-07-30T14:19:51;23.43;118.99
584;HTU21D;27024;54.068;12.116;2023-07-30T14:22:18;23.66;118.99
584;HTU21D;27024;54.068;12.116;2023-07-30T14:24:45;23.74;118.99
584;HTU21D;27024;54.068;12.116;2023-07-30T14:27:11;24.05;118.99
584;HTU21D;27024;54.068;12.116;2023-07-30T14:29:38;24.38;118.99
584;HTU21D;27024;54.068;12.116;2023-07-30T14:32:06;24.48;118.99
584;HTU21D;27024;54.068;12.116;2023-07-30T14:34:33;23.98;118.99
584;HTU21D;27024;54.068;12.116;2023-07-30T14:37:00;24.25;118.99
584;HTU21D;27024;54.068;12.116;2023-07-30T14:39:28;24.90;118.99
584;HTU21D;27024;54.068;12.116;2023-07-30T14:41:55;24.82;118.99
584;HTU21D;27024;54.068;12.116;2023-07-30T14:44:22;25.38;118.99
584;HTU21D;27024;54.068;12.116;2023-07-30T14:46:49;25.06;118.99
584;HTU21D;27024;54.068;12.116;2023-07-30T14:49:16;24.74;118.99
584;HTU21D;27024;54.068;12.116;2023-07-30T14:51:44;24.55;118.99
584;HTU21D;27024;54.068;12.116;2023-07-30T14:54:12;23.98;118.99
584;HTU21D;27024;54.068;12.116;2023-07-30T14:56:39;23.79;118.99
584;HTU21D;27024;54.068;12.116;2023-07-30T14:59:07;23.82;118.99
584;HTU21D;27024;54.068;12.116;2023-07-30T15:01:33;23.58;118.99
584;HTU21D;27024;54.068;12.116;2023-07-30T15:04:03;23.23;118.99
584;HTU21D;27024;54.068;12.116;2023-07-30T15:06:33;23.58;118.99
584;HTU21D;27024;54.068;12.116;2023-07-30T15:09:00;24.19;118.99
584;HTU21D;27024;54.068;12.116;2023-07-30T15:11:28;24.62;118.99
584;HTU21D;27024;54.068;12.116;2023-07-30T15:13:54;25.09;118.99
584;HTU21D;27024;54.068;12.116;2023-07-30T15:16:21;24.76;118.99
584;HTU21D;27024;54.068;12.116;2023-07-30T15:18:48;24.23;118.99
584;HTU21D;27024;54.068;12.116;2023-07-30T15:21:15;23.71;118.99
584;HTU21D;27024;54.068;12.116;2023-07-30T15:23:43;23.54;118.99
584;HTU21D;27024;54.068;12.116;2023-07-30T15:26:12;23.32;118.99